This is the latest recevied weather packets stored in our database for station/object OE-11144. If no packets are shown the sender has not sent any weather packets the latest 10 day(s).
| Time | Temp. | Humidity | Pressure | Rain* | Wind** | Luminosity | Snow |
|---|---|---|---|---|---|---|---|
| 1787607699 | 18.33° C | 70% | 1013.3 hPa | 0 mm | - | - | - |
| 1787607326 | 18.89° C | 63% | 1013.1 hPa | 0 mm | - | - | - |
| 1787606725 | 18.89° C | 68% | 1013.2 hPa | 0 mm | - | - | - |
| 1787605899 | 20° C | 53% | 1012.9 hPa | 0 mm | - | - | - |
| 1787605526 | 20° C | 55% | 1012.8 hPa | 0 mm | - | - | - |
| 1787604926 | 18.33° C | 72% | 1013.5 hPa | 0 mm | - | - | - |
| 1787604099 | 17.78° C | 76% | 1013.9 hPa | 0 mm | - | - | - |
| 1787603726 | 17.78° C | 76% | 1013.9 hPa | 0 mm | - | - | - |
| 1787603126 | 17.78° C | 78% | 1014 hPa | 0 mm | - | - | - |
| 1787602537 | 17.22° C | 80% | 1014.1 hPa | 0 mm | - | - | - |
| 1787601926 | 18.89° C | 73% | 1013.5 hPa | 0 mm | - | - | - |
| 1787601326 | 18.33° C | 73% | 1013.9 hPa | 0 mm | - | - | - |
| 1787600499 | 17.78° C | 77% | 1014.2 hPa | 0 mm | - | - | - |
| 1787600126 | 18.89° C | 69% | 1013.7 hPa | 0 mm | - | - | - |
| 1787599525 | 18.89° C | 73% | 1013.6 hPa | 0 mm | - | - | - |
| 1787598699 | 18.89° C | 67% | 1013.5 hPa | 0 mm | - | - | - |
| 1787598325 | 19.44° C | 69% | 1013.1 hPa | 0 mm | - | - | - |
| 1787597725 | 18.33° C | 74% | 1013.3 hPa | 0 mm | - | - | - |
| 1787596899 | 18.33° C | 74% | 1013.4 hPa | 0 mm | - | - | - |
| 1787596525 | 18.33° C | 75% | 1013.4 hPa | 0 mm | - | - | - |
| 1787595926 | 20.56° C | 66% | 1012.6 hPa | 0 mm | - | - | - |
| 1787595099 | 20.56° C | 65% | 1012.1 hPa | 0 mm | - | - | - |
| 1787594726 | 20.56° C | 65% | 1012.5 hPa | 0 mm | - | - | - |
| 1787594124 | 22.22° C | 59% | 1012 hPa | 0 mm | - | - | - |
| 1787593299 | 23.33° C | 52% | 1011.6 hPa | 0 mm | - | - | - |
* Rain latest hour (hover to see other rain measurements)
** Current wind speed in m/s (hover to see current wind gust speed)